createdAt,value
2017-07-09T00:00:56.980Z,92.8
2017-07-09T00:02:33.096Z,92.32
2017-07-09T00:03:48.370Z,92.22
2017-07-09T00:05:18.977Z,93.19
2017-07-09T00:06:33.807Z,93.57
2017-07-09T00:07:48.040Z,93.76
2017-07-09T00:09:02.260Z,94.06
2017-07-09T00:10:30.974Z,93.96
2017-07-09T00:11:45.773Z,93.38
2017-07-09T00:13:00.234Z,93.96
2017-07-09T00:14:14.683Z,94.06
2017-07-09T00:15:28.813Z,94.24
2017-07-09T00:16:42.305Z,94.82
2017-07-09T00:17:55.925Z,92.32
2017-07-09T00:19:10.199Z,88.17
2017-07-09T00:20:23.667Z,85.42
2017-07-09T00:21:38.194Z,83.78
2017-07-09T00:22:52.041Z,83.15
2017-07-09T00:25:34.620Z,83.05
2017-07-09T00:26:49.414Z,82.67
2017-07-09T00:28:02.906Z,81.7
2017-07-09T00:29:16.398Z,81.9
2017-07-09T00:30:30.372Z,81.6
2017-07-09T00:31:44.729Z,80.93
2017-07-09T00:32:58.278Z,81.02
2017-07-09T00:34:12.218Z,80.93
2017-07-09T00:35:27.050Z,81.02
2017-07-09T00:36:41.331Z,85.94
2017-07-09T00:37:55.546Z,84.31
2017-07-09T00:39:09.273Z,81.9
2017-07-09T00:40:23.059Z,81.9
2017-07-09T00:41:37.434Z,81.51
2017-07-09T00:42:51.333Z,81.51
2017-07-09T00:44:05.702Z,80.93
2017-07-09T00:45:19.108Z,81.9
2017-07-09T00:46:32.818Z,85.46
2017-07-09T00:47:47.010Z,86.04
2017-07-09T00:49:00.477Z,89.61
2017-07-09T00:50:14.855Z,90.15
2017-07-09T00:51:28.290Z,90.82
2017-07-09T00:52:42.228Z,90.2
2017-07-09T00:53:55.639Z,86.77
2017-07-09T00:55:09.731Z,83.69
2017-07-09T00:56:24.734Z,82.14
2017-07-09T00:57:38.223Z,81.66
2017-07-09T00:58:52.441Z,81.7
2017-07-09T01:00:06.222Z,81.02
2017-07-09T01:01:20.230Z,80.54
2017-07-09T01:02:34.232Z,80.16
2017-07-09T01:03:47.940Z,79.87
2017-07-09T01:05:01.439Z,80.54
2017-07-09T01:06:15.444Z,84.41
2017-07-09T01:07:29.237Z,81.7
2017-07-09T01:08:43.601Z,81.12
2017-07-09T01:09:57.439Z,80.35
2017-07-09T01:11:11.596Z,79.58
2017-07-09T01:12:25.192Z,78.91
2017-07-09T01:13:39.315Z,78.81
2017-07-09T01:14:53.328Z,78.03
2017-07-09T01:16:07.477Z,77.55
2017-07-09T01:17:20.923Z,77.17
2017-07-09T01:18:34.909Z,77.07
2017-07-09T01:19:48.823Z,77.84
2017-07-09T01:21:02.884Z,77.36
2017-07-09T01:22:17.050Z,77.26
2017-07-09T01:23:30.540Z,77.17
2017-07-09T01:24:58.874Z,79.19
2017-07-09T01:26:12.795Z,80.74
2017-07-09T01:27:26.535Z,78.81
2017-07-09T01:28:40.323Z,78.33
2017-07-09T01:29:53.885Z,78.03
2017-07-09T01:31:07.384Z,77.46
2017-07-09T01:32:21.399Z,77.17
2017-07-09T01:33:35.163Z,77.07
2017-07-09T01:34:49.484Z,77.07
2017-07-09T01:36:03.127Z,78.81
2017-07-09T01:37:17.368Z,81.9
2017-07-09T01:38:31.877Z,84.11
2017-07-09T01:39:46.264Z,86
2017-07-09T01:40:59.988Z,87.54
2017-07-09T01:42:14.053Z,88.37
2017-07-09T01:43:34.393Z,89.53
2017-07-09T01:44:48.464Z,91.45
2017-07-09T01:46:02.151Z,91.21
2017-07-09T01:47:15.774Z,92.56
2017-07-09T01:48:29.669Z,93.33
2017-07-09T01:49:43.657Z,93.72
2017-07-09T01:50:57.459Z,94.44
2017-07-09T01:52:11.505Z,95.12
2017-07-09T01:53:26.161Z,95.98
2017-07-09T01:54:39.612Z,97.04
2017-07-09T01:55:53.265Z,97.52
2017-07-09T01:58:35.584Z,98.87
2017-07-09T02:00:04.436Z,98.92
2017-07-09T02:01:18.493Z,98.68
2017-07-09T02:04:01.251Z,99.4
2017-07-09T02:05:14.793Z,99.99
2017-07-09T02:06:28.282Z,99.4
2017-07-09T02:07:41.747Z,98.72
2017-07-09T02:08:55.416Z,99.11
2017-07-09T02:10:09.072Z,99.59
2017-07-09T02:11:23.777Z,99.99
2017-07-09T02:12:37.244Z,99.99
2017-07-09T02:13:50.771Z,99.59
2017-07-09T02:15:04.797Z,99.98
2017-07-09T02:16:18.837Z,99.69
2017-07-09T02:17:32.557Z,99.99
2017-07-09T02:18:46.004Z,99.99
2017-07-09T02:20:00.377Z,99.99
2017-07-09T02:21:14.105Z,99.99
2017-07-09T02:22:28.628Z,99.99
2017-07-09T02:23:42.497Z,99.99
2017-07-09T02:24:56.274Z,99.99
2017-07-09T02:26:10.164Z,99.99
2017-07-09T02:27:24.508Z,99.99
2017-07-09T02:28:38.764Z,99.99
2017-07-09T02:29:52.770Z,99.99
2017-07-09T02:31:06.232Z,99.99
2017-07-09T02:32:19.701Z,99.99
2017-07-09T02:33:33.773Z,99.99
2017-07-09T02:34:48.019Z,99.99
2017-07-09T02:36:01.519Z,99.99
2017-07-09T02:37:22.187Z,99.99
2017-07-09T02:38:35.640Z,99.99
2017-07-09T02:39:49.311Z,99.99
2017-07-09T02:41:02.948Z,99.99
2017-07-09T02:42:16.583Z,99.99
2017-07-09T02:43:30.346Z,99.99
2017-07-09T02:44:43.756Z,99.99
2017-07-09T02:46:12.257Z,99.99
2017-07-09T02:47:25.715Z,99.99
2017-07-09T02:48:39.489Z,99.99
2017-07-09T02:49:53.166Z,99.99
2017-07-09T02:51:06.576Z,99.99
2017-07-09T02:52:20.246Z,99.99
2017-07-09T02:53:33.750Z,99.99
2017-07-09T02:54:47.165Z,99.99
2017-07-09T02:56:01.007Z,99.99
2017-07-09T02:57:14.473Z,99.99
2017-07-09T02:58:28.252Z,99.99
2017-07-09T02:59:41.657Z,99.99
2017-07-09T03:00:55.073Z,99.99
2017-07-09T03:02:08.918Z,99.99
2017-07-09T03:03:23.253Z,99.99
2017-07-09T03:04:37.229Z,99.99
2017-07-09T03:05:50.620Z,99.99
2017-07-09T03:07:04.049Z,99.99
2017-07-09T03:08:17.712Z,99.99
2017-07-09T03:09:31.179Z,99.99
2017-07-09T03:10:44.885Z,99.99
2017-07-09T03:11:58.332Z,99.99
2017-07-09T03:13:12.099Z,99.99
2017-07-09T03:14:25.894Z,99.99
2017-07-09T03:15:39.895Z,99.99
2017-07-09T03:16:53.931Z,99.99
2017-07-09T03:18:07.695Z,99.99
2017-07-09T03:19:21.346Z,99.99
2017-07-09T03:20:35.028Z,99.99
2017-07-09T03:21:48.835Z,99.99
2017-07-09T03:23:02.485Z,99.99
2017-07-09T03:24:15.877Z,99.99
2017-07-09T03:25:30.341Z,99.99
2017-07-09T03:26:44.008Z,99.99
2017-07-09T03:27:57.423Z,99.99
2017-07-09T03:29:11.104Z,99.99
2017-07-09T03:30:24.681Z,99.99
2017-07-09T03:31:38.843Z,99.99
2017-07-09T03:32:52.878Z,99.99
2017-07-09T03:34:06.304Z,99.99
2017-07-09T03:35:20.128Z,99.99
2017-07-09T03:36:33.868Z,99.99
2017-07-09T03:37:48.360Z,99.99
2017-07-09T03:39:02.214Z,99.99
2017-07-09T03:40:15.665Z,99.99
2017-07-09T03:41:44.513Z,99.99
2017-07-09T03:42:57.970Z,99.99
2017-07-09T03:44:11.997Z,99.99
2017-07-09T03:45:25.496Z,99.99
2017-07-09T03:46:39.146Z,99.99
2017-07-09T03:47:52.601Z,99.99
2017-07-09T03:49:06.370Z,99.99
2017-07-09T03:50:20.087Z,99.99
2017-07-09T03:51:34.006Z,99.99
2017-07-09T03:52:47.676Z,99.99
2017-07-09T03:54:01.112Z,99.99
2017-07-09T03:55:14.573Z,99.99
2017-07-09T03:56:28.360Z,99.99
2017-07-09T03:57:41.922Z,99.99
2017-07-09T03:58:55.740Z,99.99
2017-07-09T04:00:09.557Z,99.99
2017-07-09T04:01:23.017Z,99.99
2017-07-09T04:02:37.803Z,99.99
2017-07-09T04:03:51.531Z,99.99
2017-07-09T04:05:05.322Z,99.99
2017-07-09T04:06:18.785Z,99.99
2017-07-09T04:07:32.762Z,99.99
2017-07-09T04:08:46.704Z,99.99
2017-07-09T04:10:00.436Z,99.99
2017-07-09T04:12:42.382Z,95.5
2017-07-09T04:13:56.126Z,95.79
2017-07-09T04:15:09.796Z,94.92
2017-07-09T04:16:23.523Z,95.31
2017-07-09T04:17:37.384Z,97.96
2017-07-09T04:18:50.767Z,96.51
2017-07-09T04:20:19.003Z,91.06
2017-07-09T04:21:33.080Z,86.65
2017-07-09T04:22:46.492Z,80.94
2017-07-09T04:24:00.497Z,77.05
2017-07-09T04:25:13.906Z,75.92
2017-07-09T04:26:27.314Z,73.54
2017-07-09T04:27:41.064Z,73.96
2017-07-09T04:28:54.608Z,75.73
2017-07-09T04:30:08.697Z,76.86
2017-07-09T04:31:22.422Z,78.94
2017-07-09T04:32:35.971Z,79.39
2017-07-09T04:33:50.296Z,80.51
2017-07-09T04:35:04.009Z,81.48
2017-07-09T04:36:17.662Z,82.25
2017-07-09T04:37:31.118Z,83.66
2017-07-09T04:38:44.523Z,83.23
2017-07-09T04:39:58.200Z,82.79
2017-07-09T04:41:11.617Z,78.77
2017-07-09T04:42:25.335Z,74.36
2017-07-09T04:43:38.785Z,73.99
2017-07-09T04:44:52.860Z,75.44
2017-07-09T04:46:06.538Z,75.6
2017-07-09T04:47:20.287Z,74.53
2017-07-09T04:48:34.160Z,75.44
2017-07-09T04:49:47.572Z,75.24
2017-07-09T04:51:00.984Z,77.05
2017-07-09T04:52:14.650Z,77.2
2017-07-09T04:53:28.406Z,79.68
2017-07-09T04:54:42.303Z,79.54
2017-07-09T04:55:56.638Z,77.07
2017-07-09T04:57:10.060Z,76.46
2017-07-09T04:58:23.730Z,77.3
2017-07-09T04:59:37.558Z,77.45
2017-07-09T05:00:51.556Z,76.29
2017-07-09T05:04:00.027Z,71.6
2017-07-09T05:05:36.066Z,72.47
2017-07-09T05:07:20.283Z,69.53
2017-07-09T05:08:33.849Z,66.53
2017-07-09T05:09:48.356Z,62.81
2017-07-09T05:11:01.961Z,59.43
2017-07-09T05:12:15.610Z,57.25
2017-07-09T05:13:29.020Z,57.21
2017-07-09T05:14:42.534Z,59.39
2017-07-09T05:16:11.647Z,59.82
2017-07-09T05:17:25.319Z,59.43
2017-07-09T05:18:39.774Z,59.14
2017-07-09T05:19:53.277Z,59.46
2017-07-09T05:21:07.908Z,58.97
2017-07-09T05:22:21.990Z,59.36
2017-07-09T05:23:35.656Z,60.24
2017-07-09T05:24:49.496Z,59.17
2017-07-09T05:26:02.925Z,58.71
2017-07-09T05:27:16.808Z,58.13
2017-07-09T05:28:30.961Z,57.18
2017-07-09T05:29:44.959Z,56.14
2017-07-09T05:30:58.539Z,55.87
2017-07-09T05:32:11.967Z,55.9
2017-07-09T05:33:25.618Z,56.07
2017-07-09T05:34:39.289Z,57.82
2017-07-09T05:35:53.633Z,58.51
2017-07-09T05:37:07.087Z,59.82
2017-07-09T05:38:20.522Z,61.25
2017-07-09T05:39:34.441Z,61.71
2017-07-09T05:40:48.101Z,62.68
2017-07-09T05:42:01.944Z,62.32
2017-07-09T05:43:16.026Z,63.2
2017-07-09T05:44:30.965Z,63.88
2017-07-09T05:45:44.728Z,65.05
2017-07-09T05:46:58.731Z,65.4
2017-07-09T05:48:12.739Z,65.79
2017-07-09T05:49:26.149Z,66.17
2017-07-09T05:50:39.703Z,65.69
2017-07-09T05:51:53.179Z,66.53
2017-07-09T05:53:06.858Z,66.37
2017-07-09T05:54:20.522Z,65.98
2017-07-09T05:55:34.365Z,66.14
2017-07-09T05:56:48.162Z,65.85
2017-07-09T05:58:01.688Z,65.69
2017-07-09T05:59:15.415Z,66.66
2017-07-09T06:00:29.068Z,66.63
2017-07-09T06:01:42.476Z,67.02
2017-07-09T06:02:56.238Z,66.34
2017-07-09T06:04:09.689Z,66.63
2017-07-09T06:06:52.475Z,66.53
2017-07-09T06:08:05.887Z,66.14
2017-07-09T06:09:19.860Z,66.5
2017-07-09T06:10:48.922Z,66.24
2017-07-09T06:12:02.626Z,66.14
2017-07-09T06:13:16.781Z,66.24
2017-07-09T06:14:30.516Z,66.44
2017-07-09T06:15:43.938Z,66.92
2017-07-09T06:16:57.616Z,66.63
2017-07-09T06:18:11.364Z,67.27
2017-07-09T06:19:24.811Z,68.24
2017-07-09T06:20:38.573Z,67.82
2017-07-09T06:21:52.101Z,68.21
2017-07-09T06:23:05.886Z,68.24
2017-07-09T06:24:19.564Z,67.24
2017-07-09T06:25:33.167Z,67.08
2017-07-09T06:26:46.691Z,66.89
2017-07-09T06:28:00.610Z,67.08
2017-07-09T06:29:14.609Z,66.2
2017-07-09T06:30:28.597Z,66.44
2017-07-09T06:31:42.337Z,66.6
2017-07-09T06:32:55.752Z,66.3
2017-07-09T06:34:24.831Z,66.69
2017-07-09T06:35:39.556Z,67.27
2017-07-09T06:36:53.223Z,67.37
2017-07-09T06:38:06.737Z,67.63
2017-07-09T06:39:20.151Z,67.92
2017-07-09T06:40:34.071Z,68.12
2017-07-09T06:41:47.481Z,68.12
2017-07-09T06:43:01.335Z,67.92
2017-07-09T06:44:29.937Z,68.21
2017-07-09T06:45:43.714Z,68.02
2017-07-09T06:46:57.280Z,67.88
2017-07-09T06:48:11.358Z,67.88
2017-07-09T06:49:25.199Z,67.82
2017-07-09T06:50:53.517Z,67.53
2017-07-09T06:52:07.213Z,67.82
2017-07-09T06:53:21.335Z,67.92
2017-07-09T06:54:35.366Z,67.34
2017-07-09T06:55:48.807Z,67.34
2017-07-09T06:57:02.324Z,67.63
2017-07-09T06:58:15.851Z,68.02
2017-07-09T06:59:29.681Z,67.63
2017-07-09T07:00:43.806Z,68.02
2017-07-09T07:01:57.386Z,67.53
2017-07-09T07:03:11.939Z,68.27
2017-07-09T07:04:25.813Z,67.6
2017-07-09T07:05:39.558Z,68.37
2017-07-09T07:06:54.794Z,68.37
2017-07-09T07:08:23.444Z,68.53
2017-07-09T07:09:37.642Z,67.69
2017-07-09T07:10:51.574Z,67.5
2017-07-09T07:12:05.397Z,67.72
2017-07-09T07:13:19.154Z,66.75
2017-07-09T07:14:32.637Z,67.34
2017-07-09T07:15:46.757Z,66.85
2017-07-09T07:17:00.197Z,67.72
2017-07-09T07:18:14.487Z,66.95
2017-07-09T07:19:27.928Z,66.95
2017-07-09T07:20:42.927Z,66.85
2017-07-09T07:21:57.017Z,66.85
2017-07-09T07:23:10.549Z,67.14
2017-07-09T07:24:24.421Z,66.89
2017-07-09T07:25:38.850Z,67.05
2017-07-09T07:26:52.425Z,66.79
2017-07-09T07:28:06.926Z,67.53
2017-07-09T07:29:20.569Z,67.34
2017-07-09T07:30:34.537Z,67.44
2017-07-09T07:31:48.507Z,67.63
2017-07-09T07:33:02.924Z,68.02
2017-07-09T07:34:16.980Z,67.63
2017-07-09T07:35:31.177Z,67.34
2017-07-09T07:36:45.586Z,67.34
2017-07-09T07:37:59.099Z,66.85
2017-07-09T07:39:12.569Z,66.56
2017-07-09T07:40:26.653Z,66.75
2017-07-09T07:41:40.234Z,66.47
2017-07-09T07:42:53.979Z,66.85
2017-07-09T07:44:08.036Z,66.75
2017-07-09T07:45:21.615Z,66.95
2017-07-09T07:46:35.692Z,66.85
2017-07-09T07:47:49.555Z,66.3
2017-07-09T07:49:03.345Z,65.92
2017-07-09T07:50:17.273Z,65.63
2017-07-09T07:51:31.603Z,65.37
2017-07-09T07:52:46.131Z,65.37
2017-07-09T07:54:15.175Z,65.47
2017-07-09T07:55:29.025Z,66.05
2017-07-09T07:56:42.815Z,66.4
2017-07-09T07:57:57.295Z,66.99
2017-07-09T07:59:11.734Z,67.47
2017-07-09T08:00:25.343Z,67.27
2017-07-09T08:01:39.751Z,67.57
2017-07-09T08:02:53.694Z,67.18
2017-07-09T08:04:07.881Z,67.37
2017-07-09T08:05:21.553Z,67.95
2017-07-09T08:06:35.859Z,66.89
2017-07-09T08:07:50.479Z,66.05
2017-07-09T08:09:19.292Z,65.37
2017-07-09T08:10:36.956Z,65.69
2017-07-09T08:11:55.520Z,65.4
2017-07-09T08:13:24.163Z,65.47
2017-07-09T08:14:37.811Z,65.56
2017-07-09T08:15:52.999Z,65.56
2017-07-09T08:17:06.882Z,64.95
2017-07-09T08:18:20.623Z,65.24
2017-07-09T08:19:34.340Z,65.17
2017-07-09T08:20:47.915Z,65.37
2017-07-09T08:22:18.523Z,64.69
2017-07-09T08:23:35.775Z,64.33
2017-07-09T08:24:49.812Z,64.62
2017-07-09T08:26:49.927Z,64.92
2017-07-09T08:28:04.513Z,64.62
2017-07-09T08:29:21.220Z,63.65
2017-07-09T08:30:39.449Z,63.78
2017-07-09T08:31:56.034Z,63.78
2017-07-09T08:33:11.118Z,63.78
2017-07-09T08:34:25.569Z,63.88
2017-07-09T08:35:55.481Z,63.29
2017-07-09T08:37:09.505Z,63.49
2017-07-09T08:38:23.742Z,63.78
2017-07-09T08:39:37.592Z,63.49
2017-07-09T08:40:51.731Z,63.59
2017-07-09T08:42:06.582Z,63.62
2017-07-09T08:43:22.441Z,63.68
2017-07-09T08:44:37.136Z,63.59
2017-07-09T08:45:50.766Z,63.59
2017-07-09T08:47:19.705Z,63.59
2017-07-09T08:48:35.311Z,63.2
2017-07-09T08:49:49.734Z,63.62
2017-07-09T08:51:03.726Z,63.42
2017-07-09T08:52:17.246Z,62.45
2017-07-09T08:53:31.393Z,62.65
2017-07-09T08:54:45.780Z,62.55
2017-07-09T08:55:59.470Z,62.94
2017-07-09T08:57:13.690Z,63.42
2017-07-09T08:58:27.863Z,62.55
2017-07-09T08:59:57.086Z,62
2017-07-09T09:01:12.408Z,62.45
2017-07-09T09:02:27.062Z,62.45
2017-07-09T09:03:43.203Z,62.19
